sensor_id;sensor_type;location;lat;lon;timestamp;pressure;altitude;pressure_sealevel;temperature;humidity
53699;BME280;68408;53.952;27.612;2023-05-02T00:01:42;1016.6;;;7.6;46.3
53699;BME280;68408;53.952;27.612;2023-05-02T00:06:48;1016.6;;;7.5;46.3
53699;BME280;68408;53.952;27.612;2023-05-02T00:11:34;1016.6;;;7.5;46.5
53699;BME280;68408;53.952;27.612;2023-05-02T00:16:56;1016.7;;;7.5;46.6
53699;BME280;68408;53.952;27.612;2023-05-02T00:21:42;1016.8;;;7.4;46.7
53699;BME280;68408;53.952;27.612;2023-05-02T00:26:20;1016.8;;;7.4;47
53699;BME280;68408;53.952;27.612;2023-05-02T00:31:10;1016.8;;;7.4;47.1
53699;BME280;68408;53.952;27.612;2023-05-02T00:36:46;1016.7;;;7.3;47.1
53699;BME280;68408;53.952;27.612;2023-05-02T00:41:26;1016.6;;;7.3;47.3
53699;BME280;68408;53.952;27.612;2023-05-02T00:46:44;1016.6;;;7.3;47.2
53699;BME280;68408;53.952;27.612;2023-05-02T00:51:44;1016.6;;;7.3;47.2
53699;BME280;68408;53.952;27.612;2023-05-02T00:56:32;1016.6;;;7.2;47.3
53699;BME280;68408;53.952;27.612;2023-05-02T01:01:44;1016.6;;;7.2;47.4
53699;BME280;68408;53.952;27.612;2023-05-02T01:06:38;1016.6;;;7.2;47.2
53699;BME280;68408;53.952;27.612;2023-05-02T01:11:18;1016.6;;;7.2;47.1
53699;BME280;68408;53.952;27.612;2023-05-02T01:16:48;1016.6;;;7.2;47
53699;BME280;68408;53.952;27.612;2023-05-02T01:21:56;1016.6;;;7.2;47
53699;BME280;68408;53.952;27.612;2023-05-02T01:26:14;1016.6;;;7.2;46.9
53699;BME280;68408;53.952;27.612;2023-05-02T01:31:43;1016.6;;;7.2;46.7
53699;BME280;68408;53.952;27.612;2023-05-02T01:36:49;1016.6;;;7.2;46.4
53699;BME280;68408;53.952;27.612;2023-05-02T01:41:47;1016.6;;;7.2;46.3
53699;BME280;68408;53.952;27.612;2023-05-02T01:46:56;1016.6;;;7.2;46.2
53699;BME280;68408;53.952;27.612;2023-05-02T01:51:45;1016.6;;;7.2;46.3
53699;BME280;68408;53.952;27.612;2023-05-02T01:56:58;1016.6;;;7.2;46.4
53699;BME280;68408;53.952;27.612;2023-05-02T02:01:54;1016.6;;;7.1;46.7
53699;BME280;68408;53.952;27.612;2023-05-02T02:06:20;1016.6;;;7.1;46.6
53699;BME280;68408;53.952;27.612;2023-05-02T02:11:56;1016.6;;;7.1;46.5
53699;BME280;68408;53.952;27.612;2023-05-02T02:16:36;1016.5;;;7;46.4
53699;BME280;68408;53.952;27.612;2023-05-02T02:21:22;1016.5;;;7;46.3
53699;BME280;68408;53.952;27.612;2023-05-02T02:26:28;1016.5;;;7;46.1
53699;BME280;68408;53.952;27.612;2023-05-02T02:31:56;1016.5;;;7.1;46.1
53699;BME280;68408;53.952;27.612;2023-05-02T02:36:38;1016.5;;;7.1;45.7
53699;BME280;68408;53.952;27.612;2023-05-02T02:41:59;1016.4;;;7.1;45.3
53699;BME280;68408;53.952;27.612;2023-05-02T02:46:59;1016.5;;;7.2;44.8
53699;BME280;68408;53.952;27.612;2023-05-02T02:51:10;1016.5;;;7.4;44.3
53699;BME280;68408;53.952;27.612;2023-05-02T02:56:11;1016.5;;;7.5;43.9
53699;BME280;68408;53.952;27.612;2023-05-02T03:01:45;1016.6;;;7.7;43.2
53699;BME280;68408;53.952;27.612;2023-05-02T03:06:40;1016.6;;;7.9;42.8
53699;BME280;68408;53.952;27.612;2023-05-02T03:11:20;1016.6;;;8.1;42.6
53699;BME280;68408;53.952;27.612;2023-05-02T03:16:36;1016.7;;;8.2;42.3
53699;BME280;68408;53.952;27.612;2023-05-02T03:21:58;1016.7;;;8.4;41.9
53699;BME280;68408;53.952;27.612;2023-05-02T03:26:42;1016.7;;;8.5;41.5
53699;BME280;68408;53.952;27.612;2023-05-02T03:31:36;1016.6;;;8.6;41.3
53699;BME280;68408;53.952;27.612;2023-05-02T03:36:28;1016.6;;;8.6;41
53699;BME280;68408;53.952;27.612;2023-05-02T03:41:56;1016.6;;;8.8;40.9
53699;BME280;68408;53.952;27.612;2023-05-02T03:46:10;1016.6;;;8.9;40.7
53699;BME280;68408;53.952;27.612;2023-05-02T03:51:44;1016.6;;;9.2;40.3
53699;BME280;68408;53.952;27.612;2023-05-02T03:56:44;1016.5;;;9.4;39.9
53699;BME280;68408;53.952;27.612;2023-05-02T04:01:20;1016.5;;;9.7;39.5
53699;BME280;68408;53.952;27.612;2023-05-02T04:06:34;1016.5;;;10;39.2
53699;BME280;68408;53.952;27.612;2023-05-02T04:11:36;1016.5;;;10.2;38.7
53699;BME280;68408;53.952;27.612;2023-05-02T04:16:20;1016.5;;;10.4;38
53699;BME280;68408;53.952;27.612;2023-05-02T04:21:48;1016.5;;;10.6;37.1
53699;BME280;68408;53.952;27.612;2023-05-02T04:26:56;1016.5;;;10.7;36.7
53699;BME280;68408;53.952;27.612;2023-05-02T04:31:10;1016.5;;;10.9;36.1
53699;BME280;68408;53.952;27.612;2023-05-02T04:36:40;1016.5;;;11.1;36.2
53699;BME280;68408;53.952;27.612;2023-05-02T04:41:26;1016.5;;;11.2;35.7
53699;BME280;68408;53.952;27.612;2023-05-02T04:46:44;1016.5;;;11.3;35.4
53699;BME280;68408;53.952;27.612;2023-05-02T04:51:38;1016.5;;;11.4;34.9
53699;BME280;68408;53.952;27.612;2023-05-02T04:56:30;1016.5;;;11.5;35.2
53699;BME280;68408;53.952;27.612;2023-05-02T05:01:54;1016.5;;;11.8;34.5
53699;BME280;68408;53.952;27.612;2023-05-02T05:06:54;1016.4;;;12;34.4
53699;BME280;68408;53.952;27.612;2023-05-02T05:11:10;1016.4;;;12.2;34.1
53699;BME280;68408;53.952;27.612;2023-05-02T05:16:54;1016.4;;;12.2;33.3
53699;BME280;68408;53.952;27.612;2023-05-02T05:21:46;1016.4;;;12.2;33.5
53699;BME280;68408;53.952;27.612;2023-05-02T05:26:22;1016.3;;;12.2;33.3
53699;BME280;68408;53.952;27.612;2023-05-02T05:31:44;1016.2;;;12.4;33.3
53699;BME280;68408;53.952;27.612;2023-05-02T05:36:54;1016.2;;;12.5;33.3
53699;BME280;68408;53.952;27.612;2023-05-02T05:41:36;1016.1;;;12.7;33
53699;BME280;68408;53.952;27.612;2023-05-02T05:46:44;1016.1;;;12.9;33.1
53699;BME280;68408;53.952;27.612;2023-05-02T05:51:54;1016;;;13;33
53699;BME280;68408;53.952;27.612;2023-05-02T05:56:10;1016.1;;;13.2;32.9
53699;BME280;68408;53.952;27.612;2023-05-02T06:01:18;1016.1;;;13.4;32.8
53699;BME280;68408;53.952;27.612;2023-05-02T06:06:36;1015.9;;;13.6;32.8
53699;BME280;68408;53.952;27.612;2023-05-02T06:11:38;1015.9;;;13.7;32.6
53699;BME280;68408;53.952;27.612;2023-05-02T06:16:46;1015.9;;;14;32.6
53699;BME280;68408;53.952;27.612;2023-05-02T06:21:42;1015.9;;;14.2;31.6
53699;BME280;68408;53.952;27.612;2023-05-02T06:26:54;1015.8;;;14.4;31.8
53699;BME280;68408;53.952;27.612;2023-05-02T06:31:41;1015.8;;;14.8;31.7
53699;BME280;68408;53.952;27.612;2023-05-02T06:36:56;1015.7;;;15;30.9
53699;BME280;68408;53.952;27.612;2023-05-02T06:41:28;1015.7;;;15.2;31.1
53699;BME280;68408;53.952;27.612;2023-05-02T06:46:18;1015.6;;;15.6;29.9
53699;BME280;68408;53.952;27.612;2023-05-02T06:51:30;1015.6;;;15.8;29.5
53699;BME280;68408;53.952;27.612;2023-05-02T06:56:56;1015.5;;;15.9;29.2
53699;BME280;68408;53.952;27.612;2023-05-02T07:01:30;1015.5;;;16.2;28.9
53699;BME280;68408;53.952;27.612;2023-05-02T07:06:22;1015.4;;;16.3;28.5
53699;BME280;68408;53.952;27.612;2023-05-02T07:11:54;1015.5;;;16.6;28.3
53699;BME280;68408;53.952;27.612;2023-05-02T07:16:34;1015.4;;;16.8;28
53699;BME280;68408;53.952;27.612;2023-05-02T07:21:10;1015.4;;;17;27.8
53699;BME280;68408;53.952;27.612;2023-05-02T07:26:28;1015.4;;;17.2;27.4
53699;BME280;68408;53.952;27.612;2023-05-02T07:31:56;1015.3;;;17.4;27.1
53699;BME280;68408;53.952;27.612;2023-05-02T07:36:10;1015.3;;;17.6;26.9
53699;BME280;68408;53.952;27.612;2023-05-02T07:41:54;1015.3;;;17.7;26.9
53699;BME280;68408;53.952;27.612;2023-05-02T07:46:54;1015.2;;;17.8;26.7
53699;BME280;68408;53.952;27.612;2023-05-02T07:51:22;1015.1;;;17.8;26.6
53699;BME280;68408;53.952;27.612;2023-05-02T07:56:30;1015.1;;;17.8;26.6
53699;BME280;68408;53.952;27.612;2023-05-02T08:01:44;1015.1;;;17.8;26.7
53699;BME280;68408;53.952;27.612;2023-05-02T08:06:40;1015;;;17.9;26.9
53699;BME280;68408;53.952;27.612;2023-05-02T08:11:46;1015.1;;;18;26.6
53699;BME280;68408;53.952;27.612;2023-05-02T08:16:34;1015;;;18.1;25.7
53699;BME280;68408;53.952;27.612;2023-05-02T08:21:54;1015;;;17.9;25.4
53699;BME280;68408;53.952;27.612;2023-05-02T08:26:40;1014.9;;;17.9;25.7
53699;BME280;68408;53.952;27.612;2023-05-02T08:31:10;1014.9;;;18.2;25.5
53699;BME280;68408;53.952;27.612;2023-05-02T08:36:28;1014.9;;;18.4;25.2
53699;BME280;68408;53.952;27.612;2023-05-02T08:41:54;1014.9;;;18.5;24.8
53699;BME280;68408;53.952;27.612;2023-05-02T08:46:22;1014.8;;;18.6;24.7
53699;BME280;68408;53.952;27.612;2023-05-02T08:51:44;1014.7;;;18.7;24.5
53699;BME280;68408;53.952;27.612;2023-05-02T08:56:38;1014.7;;;18.8;24.5
53699;BME280;68408;53.952;27.612;2023-05-02T09:01:18;1014.6;;;18.8;24.2
53699;BME280;68408;53.952;27.612;2023-05-02T09:06:40;1014.5;;;18.9;24
53699;BME280;68408;53.952;27.612;2023-05-02T09:11:24;1014.5;;;19.1;24.4
53699;BME280;68408;53.952;27.612;2023-05-02T09:16:23;1014.3;;;19.5;23.7
53699;BME280;68408;53.952;27.612;2023-05-02T09:21:58;1014.2;;;19.6;23.4
53699;BME280;68408;53.952;27.612;2023-05-02T09:26:56;1014.2;;;19.8;23.2
53699;BME280;68408;53.952;27.612;2023-05-02T09:31:44;1014.2;;;19.6;22.6
53699;BME280;68408;53.952;27.612;2023-05-02T09:36:38;1014.1;;;19.4;23.1
53699;BME280;68408;53.952;27.612;2023-05-02T09:41:44;1014;;;19.6;22.9
53699;BME280;68408;53.952;27.612;2023-05-02T09:46:45;1013.9;;;19.5;22.9
53699;BME280;68408;53.952;27.612;2023-05-02T09:51:18;1013.9;;;19.5;22.9
53699;BME280;68408;53.952;27.612;2023-05-02T09:56:54;1013.8;;;19.7;22.8
53699;BME280;68408;53.952;27.612;2023-05-02T10:01:54;1013.8;;;19.7;22.4
53699;BME280;68408;53.952;27.612;2023-05-02T10:06:54;1013.7;;;19.9;22.3
53699;BME280;68408;53.952;27.612;2023-05-02T10:11:16;1013.7;;;20.1;22.2
53699;BME280;68408;53.952;27.612;2023-05-02T10:16:54;1013.6;;;20;21.4
53699;BME280;68408;53.952;27.612;2023-05-02T10:21:46;1013.6;;;20;22.1
53699;BME280;68408;53.952;27.612;2023-05-02T10:26:24;1013.6;;;20.2;22
53699;BME280;68408;53.952;27.612;2023-05-02T10:31:30;1013.6;;;20.1;22
53699;BME280;68408;53.952;27.612;2023-05-02T10:36:54;1013.5;;;20.2;21.8
53699;BME280;68408;53.952;27.612;2023-05-02T10:41:25;1013.4;;;20;22
53699;BME280;68408;53.952;27.612;2023-05-02T10:46:54;1013.4;;;20;22.1
53699;BME280;68408;53.952;27.612;2023-05-02T10:51:54;1013.3;;;20;21.7
53699;BME280;68408;53.952;27.612;2023-05-02T10:56:14;1013.4;;;20;21.2
53699;BME280;68408;53.952;27.612;2023-05-02T11:01:34;1013.2;;;20;21.2
53699;BME280;68408;53.952;27.612;2023-05-02T11:07:26;1013.1;;;20.1;21.1
53699;BME280;68408;53.952;27.612;2023-05-02T11:11:39;1013.1;;;20.2;21.1
53699;BME280;68408;53.952;27.612;2023-05-02T11:17:16;1013;;;20.3;21.2
53699;BME280;68408;53.952;27.612;2023-05-02T11:21:25;1013;;;20.4;21.6
53699;BME280;68408;53.952;27.612;2023-05-02T11:27:05;1012.8;;;20.5;21.8
53699;BME280;68408;53.952;27.612;2023-05-02T11:36:29;1012.6;;;20.8;21.5
53699;BME280;68408;53.952;27.612;2023-05-02T11:41:43;1012.5;;;20.7;21.2
53699;BME280;68408;53.952;27.612;2023-05-02T11:46:54;1012.5;;;20.7;21.3
53699;BME280;68408;53.952;27.612;2023-05-02T11:51:22;1012.4;;;20.8;21.3
53699;BME280;68408;53.952;27.612;2023-05-02T11:56:38;1012.3;;;20.8;20.7
53699;BME280;68408;53.952;27.612;2023-05-02T12:01:12;1012.3;;;20.8;20.9
53699;BME280;68408;53.952;27.612;2023-05-02T12:06:18;1012.2;;;20.9;20.9
53699;BME280;68408;53.952;27.612;2023-05-02T12:11:38;1012.2;;;21;21.1
53699;BME280;68408;53.952;27.612;2023-05-02T12:16:36;1012.1;;;21.1;20.9
53699;BME280;68408;53.952;27.612;2023-05-02T12:21:22;1012.1;;;21.3;21.1
53699;BME280;68408;53.952;27.612;2023-05-02T12:26:46;1012;;;21.4;21
53699;BME280;68408;53.952;27.612;2023-05-02T12:31:54;1012;;;21.5;21.3
53699;BME280;68408;53.952;27.612;2023-05-02T12:36:10;1011.9;;;21.5;21.3
53699;BME280;68408;53.952;27.612;2023-05-02T12:41:38;1011.9;;;21.5;21.4
53699;BME280;68408;53.952;27.612;2023-05-02T12:47:01;1011.8;;;21.5;21.5
53699;BME280;68408;53.952;27.612;2023-05-02T12:51:38;1011.9;;;21.6;21.5
53699;BME280;68408;53.952;27.612;2023-05-02T12:56:37;1011.8;;;21.7;21.6
53699;BME280;68408;53.952;27.612;2023-05-02T13:01:44;1011.7;;;21.9;21.4
53699;BME280;68408;53.952;27.612;2023-05-02T13:06:52;1011.7;;;22;21.3
53699;BME280;68408;53.952;27.612;2023-05-02T13:11:54;1011.6;;;22;21
53699;BME280;68408;53.952;27.612;2023-05-02T13:16:10;1011.6;;;22.2;21.2
53699;BME280;68408;53.952;27.612;2023-05-02T13:21:54;1011.6;;;22.3;21.3
53699;BME280;68408;53.952;27.612;2023-05-02T13:26:52;1011.5;;;22.4;21.4
53699;BME280;68408;53.952;27.612;2023-05-02T13:31:10;1011.4;;;22.5;21.4
53699;BME280;68408;53.952;27.612;2023-05-02T13:36:22;1011.3;;;22.4;21.6
53699;BME280;68408;53.952;27.612;2023-05-02T13:41:54;1011.2;;;22.5;21.7
53699;BME280;68408;53.952;27.612;2023-05-02T13:46:10;1011.2;;;22.4;21.8
53699;BME280;68408;53.952;27.612;2023-05-02T13:51:44;1011.3;;;22.3;22.1
53699;BME280;68408;53.952;27.612;2023-05-02T13:56:54;1011.1;;;22.5;22.2
53699;BME280;68408;53.952;27.612;2023-05-02T14:01:10;1011.1;;;22.5;22.2
53699;BME280;68408;53.952;27.612;2023-05-02T14:06:30;1011;;;22.4;22.4
53699;BME280;68408;53.952;27.612;2023-05-02T14:11:10;1010.9;;;22.5;22.6
53699;BME280;68408;53.952;27.612;2023-05-02T14:16:26;1010.9;;;22.6;22.6
53699;BME280;68408;53.952;27.612;2023-05-02T14:21:44;1010.8;;;22.8;22.7
53699;BME280;68408;53.952;27.612;2023-05-02T14:26:36;1010.6;;;23;22.6
53699;BME280;68408;53.952;27.612;2023-05-02T14:31:54;1010.5;;;23;22.6
53699;BME280;68408;53.952;27.612;2023-05-02T14:36:38;1010.5;;;23;22.9
53699;BME280;68408;53.952;27.612;2023-05-02T14:41:54;1010.5;;;22.9;23.1
53699;BME280;68408;53.952;27.612;2023-05-02T14:46:10;1010.3;;;22.9;23.1
53699;BME280;68408;53.952;27.612;2023-05-02T14:51:28;1010.4;;;22.8;23.3
53699;BME280;68408;53.952;27.612;2023-05-02T14:56:11;1010.3;;;22.7;23.5
53699;BME280;68408;53.952;27.612;2023-05-02T15:01:54;1010.4;;;22.6;23.8
53699;BME280;68408;53.952;27.612;2023-05-02T15:06:30;1010.3;;;22.5;24.2
53699;BME280;68408;53.952;27.612;2023-05-02T15:11:10;1010.3;;;22.4;24.4
53699;BME280;68408;53.952;27.612;2023-05-02T15:16:38;1010.2;;;22.5;24.5
53699;BME280;68408;53.952;27.612;2023-05-02T15:21:36;1010.1;;;22.7;24.4
53699;BME280;68408;53.952;27.612;2023-05-02T15:26:10;1010.1;;;23;24.4
53699;BME280;68408;53.952;27.612;2023-05-02T15:31:44;1010.1;;;23.1;24.4
53699;BME280;68408;53.952;27.612;2023-05-02T15:36:52;1010.1;;;23;24.3
53699;BME280;68408;53.952;27.612;2023-05-02T15:41:10;1010.1;;;22.7;24
53699;BME280;68408;53.952;27.612;2023-05-02T15:46:54;1010.1;;;22.5;23.8
53699;BME280;68408;53.952;27.612;2023-05-02T15:51:54;1010.1;;;22.4;23.6
53699;BME280;68408;53.952;27.612;2023-05-02T15:56:10;1010;;;22.1;23.9
53699;BME280;68408;53.952;27.612;2023-05-02T16:01:30;1010.1;;;21.9;24.2
53699;BME280;68408;53.952;27.612;2023-05-02T16:06:44;1010.1;;;21.8;24.3
53699;BME280;68408;53.952;27.612;2023-05-02T16:11:38;1010.1;;;21.6;24.5
53699;BME280;68408;53.952;27.612;2023-05-02T16:16:46;1010.1;;;21.4;24.3
53699;BME280;68408;53.952;27.612;2023-05-02T16:21:24;1010.2;;;21.3;24.2
53699;BME280;68408;53.952;27.612;2023-05-02T16:26:52;1010.4;;;21.1;24.4
53699;BME280;68408;53.952;27.612;2023-05-02T16:31:38;1011.1;;;20.9;26.7
53699;BME280;68408;53.952;27.612;2023-05-02T16:36:34;1011.7;;;20;35.7
53699;BME280;68408;53.952;27.612;2023-05-02T16:41:28;1011.9;;;19;40.2
53699;BME280;68408;53.952;27.612;2023-05-02T16:46:52;1012.1;;;17.9;45.4
53699;BME280;68408;53.952;27.612;2023-05-02T16:51:10;1012.3;;;17.1;48.3
53699;BME280;68408;53.952;27.612;2023-05-02T16:56:44;1012.6;;;16.5;50.3
53699;BME280;68408;53.952;27.612;2023-05-02T17:01:36;1012.8;;;16.1;51.1
53699;BME280;68408;53.952;27.612;2023-05-02T17:06:22;1012.6;;;15.9;52.9
53699;BME280;68408;53.952;27.612;2023-05-02T17:11:38;1012.6;;;15.6;55
53699;BME280;68408;53.952;27.612;2023-05-02T17:16:34;1012.6;;;15.3;55.9
53699;BME280;68408;53.952;27.612;2023-05-02T17:21:16;1012.9;;;15.2;56.7
53699;BME280;68408;53.952;27.612;2023-05-02T17:26:54;1013.1;;;15.1;58.1
53699;BME280;68408;53.952;27.612;2023-05-02T17:31:54;1013.2;;;14.9;59.7
53699;BME280;68408;53.952;27.612;2023-05-02T17:36:46;1013.1;;;14.8;60.2
53699;BME280;68408;53.952;27.612;2023-05-02T17:41:38;1013.1;;;14.8;60.8
53699;BME280;68408;53.952;27.612;2023-05-02T17:46:44;1013.1;;;14.6;61.9
53699;BME280;68408;53.952;27.612;2023-05-02T17:51:42;1013;;;14.5;62.6
53699;BME280;68408;53.952;27.612;2023-05-02T17:56:18;1012.9;;;14.4;63.7
53699;BME280;68408;53.952;27.612;2023-05-02T18:01:42;1013.1;;;14.4;64.1
53699;BME280;68408;53.952;27.612;2023-05-02T18:06:54;1013.2;;;14.4;65
53699;BME280;68408;53.952;27.612;2023-05-02T18:11:53;1013.2;;;14.4;66
53699;BME280;68408;53.952;27.612;2023-05-02T18:16:22;1013.1;;;14.3;66
53699;BME280;68408;53.952;27.612;2023-05-02T18:21:54;1013;;;14.3;66.2
53699;BME280;68408;53.952;27.612;2023-05-02T18:26:12;1013.1;;;14.3;66.6
53699;BME280;68408;53.952;27.612;2023-05-02T18:31:14;1013.3;;;14.3;66.9
53699;BME280;68408;53.952;27.612;2023-05-02T18:36:23;1013.4;;;14.2;67.6
53699;BME280;68408;53.952;27.612;2023-05-02T18:41:56;1013.4;;;14.2;67.7
53699;BME280;68408;53.952;27.612;2023-05-02T18:46:20;1013.3;;;14.2;67.6
53699;BME280;68408;53.952;27.612;2023-05-02T18:51:48;1013.4;;;14.1;67.8
53699;BME280;68408;53.952;27.612;2023-05-02T18:56:56;1013.4;;;14;68.2
53699;BME280;68408;53.952;27.612;2023-05-02T19:01:11;1013.5;;;14;68.8
53699;BME280;68408;53.952;27.612;2023-05-02T19:06:22;1013.5;;;13.9;69.3
53699;BME280;68408;53.952;27.612;2023-05-02T19:11:12;1013.5;;;13.8;69.6
53699;BME280;68408;53.952;27.612;2023-05-02T19:16:38;1013.4;;;13.8;69.2
53699;BME280;68408;53.952;27.612;2023-05-02T19:21:44;1013.5;;;13.8;69.3
53699;BME280;68408;53.952;27.612;2023-05-02T19:26:34;1013.5;;;13.6;69.4
53699;BME280;68408;53.952;27.612;2023-05-02T19:31:52;1013.6;;;13.5;69.1
53699;BME280;68408;53.952;27.612;2023-05-02T19:36:38;1013.7;;;13.5;69.3
53699;BME280;68408;53.952;27.612;2023-05-02T19:41:10;1013.7;;;13.5;69.7
53699;BME280;68408;53.952;27.612;2023-05-02T19:46:10;1013.8;;;13.4;69.8
53699;BME280;68408;53.952;27.612;2023-05-02T19:51:54;1013.9;;;13.4;69.4
53699;BME280;68408;53.952;27.612;2023-05-02T19:56:18;1013.9;;;13.3;69.1
53699;BME280;68408;53.952;27.612;2023-05-02T20:01:44;1014;;;13.3;69.6
53699;BME280;68408;53.952;27.612;2023-05-02T20:06:44;1014;;;13.2;69.9
53699;BME280;68408;53.952;27.612;2023-05-02T20:11:10;1014.1;;;13.2;70.1
53699;BME280;68408;53.952;27.612;2023-05-02T20:16:38;1014.1;;;13.2;70.3
53699;BME280;68408;53.952;27.612;2023-05-02T20:21:24;1014.1;;;13.2;70.2
53699;BME280;68408;53.952;27.612;2023-05-02T20:26:28;1014.2;;;13.2;70.7
53699;BME280;68408;53.952;27.612;2023-05-02T20:36:54;1014.2;;;13.1;71.1
53699;BME280;68408;53.952;27.612;2023-05-02T20:41:10;1014.2;;;13;71.5
53699;BME280;68408;53.952;27.612;2023-05-02T20:46:38;1014.2;;;12.9;71.8
53699;BME280;68408;53.952;27.612;2023-05-02T20:51:46;1014.2;;;12.9;71.8
53699;BME280;68408;53.952;27.612;2023-05-02T20:56:44;1014.2;;;12.8;72.1
53699;BME280;68408;53.952;27.612;2023-05-02T21:01:18;1014.2;;;12.7;72.3
53699;BME280;68408;53.952;27.612;2023-05-02T21:06:45;1014.2;;;12.6;72.4
53699;BME280;68408;53.952;27.612;2023-05-02T21:11:54;1014.2;;;12.6;72
53699;BME280;68408;53.952;27.612;2023-05-02T21:16:52;1014.2;;;12.6;72.2
53699;BME280;68408;53.952;27.612;2023-05-02T21:21:22;1014.2;;;12.6;72.2
53699;BME280;68408;53.952;27.612;2023-05-02T21:26:54;1014.3;;;12.5;72.2
53699;BME280;68408;53.952;27.612;2023-05-02T21:46:54;1014.4;;;12.6;71.6
53699;BME280;68408;53.952;27.612;2023-05-02T21:51:11;1014.5;;;12.6;71.5
53699;BME280;68408;53.952;27.612;2023-05-02T21:56:42;1014.5;;;12.5;71.6
53699;BME280;68408;53.952;27.612;2023-05-02T22:01:52;1014.6;;;12.5;71.9
53699;BME280;68408;53.952;27.612;2023-05-02T22:06:10;1014.6;;;12.5;71.9
53699;BME280;68408;53.952;27.612;2023-05-02T22:11:30;1014.6;;;12.4;72.1
53699;BME280;68408;53.952;27.612;2023-05-02T22:16:36;1014.5;;;12.3;72
53699;BME280;68408;53.952;27.612;2023-05-02T22:21:26;1014.5;;;12.2;71.8
53699;BME280;68408;53.952;27.612;2023-05-02T22:26:34;1014.5;;;12.2;72
53699;BME280;68408;53.952;27.612;2023-05-02T22:31:36;1014.5;;;12.1;71.9
53699;BME280;68408;53.952;27.612;2023-05-02T22:36:28;1014.5;;;12.1;72.2
53699;BME280;68408;53.952;27.612;2023-05-02T22:41:54;1014.5;;;12;72.1
53699;BME280;68408;53.952;27.612;2023-05-02T22:46:54;1014.6;;;12;72
53699;BME280;68408;53.952;27.612;2023-05-02T22:51:23;1014.7;;;12;72.2
53699;BME280;68408;53.952;27.612;2023-05-02T22:56:20;1014.8;;;12;72.5
53699;BME280;68408;53.952;27.612;2023-05-02T23:01:10;1014.9;;;12;72.5
53699;BME280;68408;53.952;27.612;2023-05-02T23:06:54;1015;;;12.1;72.3
53699;BME280;68408;53.952;27.612;2023-05-02T23:11:44;1015;;;12.1;72.4
53699;BME280;68408;53.952;27.612;2023-05-02T23:16:23;1015;;;12.1;72.2
53699;BME280;68408;53.952;27.612;2023-05-02T23:21:56;1015;;;12.2;72
53699;BME280;68408;53.952;27.612;2023-05-02T23:26:36;1015.1;;;12.1;71.8
53699;BME280;68408;53.952;27.612;2023-05-02T23:31:22;1015.1;;;12.1;71.7
53699;BME280;68408;53.952;27.612;2023-05-02T23:36:38;1015.1;;;12.1;71.5
53699;BME280;68408;53.952;27.612;2023-05-02T23:41:54;1015.2;;;12;71.5
53699;BME280;68408;53.952;27.612;2023-05-02T23:46:24;1015.2;;;12;71.6
53699;BME280;68408;53.952;27.612;2023-05-02T23:51:55;1015.3;;;11.9;71.5
53699;BME280;68408;53.952;27.612;2023-05-02T23:56:45;1015.4;;;11.9;71.4
